createdAt,value
2017-10-25T00:01:27.454Z,16.64
2017-10-25T00:03:55.008Z,16.61
2017-10-25T00:06:22.531Z,16.70
2017-10-25T00:08:50.051Z,16.53
2017-10-25T00:11:17.626Z,16.49
2017-10-25T00:13:45.202Z,16.78
2017-10-25T00:16:12.744Z,16.72
2017-10-25T00:18:40.301Z,16.78
2017-10-25T00:21:07.819Z,16.90
2017-10-25T00:23:35.335Z,17.00
2017-10-25T00:26:02.881Z,16.74
2017-10-25T00:28:31.360Z,16.77
2017-10-25T00:30:58.919Z,16.81
2017-10-25T00:33:26.604Z,16.87
2017-10-25T00:35:54.137Z,16.64
2017-10-25T00:38:21.714Z,16.85
2017-10-25T00:40:49.439Z,16.80
2017-10-25T00:43:16.953Z,16.39
2017-10-25T00:45:44.818Z,16.41
2017-10-25T00:48:12.614Z,16.61
2017-10-25T00:50:40.143Z,16.54
2017-10-25T00:53:07.667Z,16.60
2017-10-25T00:55:35.421Z,16.70
2017-10-25T00:58:02.941Z,16.92
2017-10-25T01:00:30.476Z,16.85
2017-10-25T01:02:58.035Z,16.85
2017-10-25T01:05:25.556Z,16.84
2017-10-25T01:07:53.124Z,16.86
2017-10-25T01:10:20.888Z,16.77
2017-10-25T01:12:48.468Z,16.68
2017-10-25T01:15:16.010Z,16.57
2017-10-25T01:17:43.699Z,16.30
2017-10-25T01:20:12.148Z,16.31
2017-10-25T01:22:39.707Z,16.24
2017-10-25T01:25:07.272Z,16.26
2017-10-25T01:27:34.827Z,16.10
2017-10-25T01:30:02.386Z,16.08
2017-10-25T01:32:30.278Z,16.31
2017-10-25T01:34:57.821Z,16.11
2017-10-25T01:37:25.368Z,15.97
2017-10-25T01:39:53.120Z,16.13
2017-10-25T01:42:20.636Z,16.00
2017-10-25T01:44:48.160Z,15.83
2017-10-25T01:47:15.812Z,15.87
2017-10-25T01:49:43.374Z,15.83
2017-10-25T01:52:10.930Z,15.92
2017-10-25T01:54:38.486Z,16.10
2017-10-25T01:57:06.048Z,16.10
2017-10-25T01:59:33.562Z,15.90
2017-10-25T02:02:01.115Z,15.84
2017-10-25T02:04:28.636Z,15.82
2017-10-25T02:06:56.181Z,15.88
2017-10-25T02:09:23.744Z,16.01
2017-10-25T02:11:51.300Z,15.93
2017-10-25T02:14:18.861Z,15.87
2017-10-25T02:16:46.560Z,16.03
2017-10-25T02:19:14.071Z,15.79
2017-10-25T02:21:41.587Z,15.97
2017-10-25T02:24:09.143Z,15.69
2017-10-25T02:26:36.659Z,15.82
2017-10-25T02:29:04.213Z,15.93
2017-10-25T02:31:31.772Z,15.87
2017-10-25T02:33:59.326Z,16.03
2017-10-25T02:36:26.845Z,16.05
2017-10-25T02:38:54.635Z,15.80
2017-10-25T02:41:22.151Z,15.79
2017-10-25T02:43:49.668Z,15.83
2017-10-25T02:46:17.215Z,15.83
2017-10-25T02:48:44.731Z,15.73
2017-10-25T02:51:12.250Z,15.80
2017-10-25T02:53:40.091Z,15.94
2017-10-25T02:56:07.610Z,16.02
2017-10-25T02:58:35.230Z,15.74
2017-10-25T03:01:02.998Z,15.63
2017-10-25T03:03:30.514Z,15.68
2017-10-25T03:05:58.040Z,15.49
2017-10-25T03:08:25.603Z,15.45
2017-10-25T03:10:53.145Z,15.61
2017-10-25T03:13:20.663Z,15.65
2017-10-25T03:15:48.396Z,15.67
2017-10-25T03:18:15.910Z,15.56
2017-10-25T03:20:43.477Z,15.61
2017-10-25T03:23:11.232Z,15.64
2017-10-25T03:25:38.796Z,15.61
2017-10-25T03:28:06.348Z,15.64
2017-10-25T03:30:34.215Z,15.71
2017-10-25T03:33:01.728Z,15.48
2017-10-25T03:35:29.242Z,15.47
2017-10-25T03:37:56.993Z,15.48
2017-10-25T03:40:24.554Z,15.37
2017-10-25T03:42:52.073Z,15.27
2017-10-25T03:45:19.674Z,15.22
2017-10-25T03:47:48.153Z,15.19
2017-10-25T03:50:15.712Z,15.16
2017-10-25T03:52:43.579Z,15.39
2017-10-25T03:55:11.138Z,15.36
2017-10-25T03:57:38.698Z,15.28
2017-10-25T04:00:06.257Z,15.36
2017-10-25T04:02:33.817Z,15.21
2017-10-25T04:05:01.374Z,15.07
2017-10-25T04:07:28.931Z,15.14
2017-10-25T04:09:56.447Z,15.15
2017-10-25T04:12:23.971Z,15.10
2017-10-25T04:14:51.823Z,14.96
2017-10-25T04:17:19.374Z,14.82
2017-10-25T04:19:46.934Z,14.98
2017-10-25T04:22:14.697Z,14.85
2017-10-25T04:24:42.212Z,14.90
2017-10-25T04:27:09.732Z,14.95
2017-10-25T04:29:37.277Z,14.93
2017-10-25T04:32:04.831Z,14.79
2017-10-25T04:34:32.342Z,14.57
2017-10-25T04:36:59.950Z,14.51
2017-10-25T04:39:27.508Z,14.58
2017-10-25T04:41:55.074Z,14.57
2017-10-25T04:44:22.837Z,14.38
2017-10-25T04:46:50.402Z,14.38
2017-10-25T04:49:17.953Z,14.28
2017-10-25T04:51:45.609Z,14.48
2017-10-25T04:54:13.170Z,14.39
2017-10-25T04:56:40.971Z,14.22
2017-10-25T04:59:08.931Z,14.36
2017-10-25T05:01:36.462Z,14.55
2017-10-25T05:04:04.028Z,14.49
2017-10-25T05:06:31.606Z,14.47
2017-10-25T05:08:59.118Z,14.48
2017-10-25T05:11:26.634Z,14.79
2017-10-25T05:13:54.378Z,15.06
2017-10-25T05:16:21.929Z,15.12
2017-10-25T05:18:49.478Z,14.83
2017-10-25T05:21:17.224Z,14.97
2017-10-25T05:23:44.751Z,14.57
2017-10-25T05:26:12.291Z,14.46
2017-10-25T05:28:40.003Z,14.68
2017-10-25T05:31:07.536Z,14.70
2017-10-25T05:33:36.077Z,14.73
2017-10-25T05:36:03.652Z,14.57
2017-10-25T05:38:31.184Z,14.42
2017-10-25T05:40:58.710Z,14.59
2017-10-25T05:43:26.903Z,14.48
2017-10-25T05:45:54.493Z,14.40
2017-10-25T05:48:22.044Z,14.25
2017-10-25T05:50:49.775Z,14.26
2017-10-25T05:53:17.383Z,14.52
2017-10-25T05:55:44.930Z,14.50
2017-10-25T05:58:12.659Z,14.52
2017-10-25T06:00:40.236Z,14.55
2017-10-25T06:03:07.794Z,14.64
2017-10-25T06:05:35.559Z,14.73
2017-10-25T06:08:03.070Z,14.59
2017-10-25T06:10:30.676Z,14.66
2017-10-25T06:12:58.339Z,14.50
2017-10-25T06:15:25.855Z,14.65
2017-10-25T06:17:53.375Z,14.48
2017-10-25T06:20:21.015Z,14.40
2017-10-25T06:22:48.527Z,14.59
2017-10-25T06:25:16.060Z,14.67
2017-10-25T06:27:43.898Z,14.71
2017-10-25T06:30:11.422Z,14.32
2017-10-25T06:32:39.017Z,14.28
2017-10-25T06:35:06.574Z,14.43
2017-10-25T06:37:34.090Z,14.66
2017-10-25T06:40:01.620Z,14.44
2017-10-25T06:42:29.563Z,14.55
2017-10-25T06:44:57.121Z,14.39
2017-10-25T06:47:24.678Z,14.29
2017-10-25T06:49:52.379Z,14.12
2017-10-25T06:52:19.920Z,14.28
2017-10-25T06:54:47.456Z,14.14
2017-10-25T06:57:15.019Z,14.38
2017-10-25T06:59:42.539Z,14.52
2017-10-25T07:02:10.061Z,14.48
2017-10-25T07:04:37.783Z,14.52
2017-10-25T07:07:05.300Z,14.59
2017-10-25T07:09:32.825Z,14.57
2017-10-25T07:12:00.560Z,14.51
2017-10-25T07:14:28.134Z,14.46
2017-10-25T07:16:55.694Z,14.71
2017-10-25T07:19:23.257Z,14.93
2017-10-25T07:21:50.818Z,14.85
2017-10-25T07:24:18.372Z,14.59
2017-10-25T07:26:46.115Z,14.83
2017-10-25T07:29:13.631Z,14.74
2017-10-25T07:31:41.150Z,14.91
2017-10-25T07:34:08.800Z,15.13
2017-10-25T07:36:36.323Z,15.08
2017-10-25T07:39:03.879Z,14.98
2017-10-25T07:41:31.697Z,15.55
2017-10-25T07:43:59.210Z,15.71
2017-10-25T07:46:27.733Z,15.89
2017-10-25T07:48:55.379Z,15.89
2017-10-25T07:51:22.899Z,16.03
2017-10-25T07:53:50.431Z,16.06
2017-10-25T07:56:18.278Z,16.50
2017-10-25T07:58:45.795Z,16.15
2017-10-25T08:01:13.334Z,16.12
2017-10-25T08:03:41.043Z,16.74
2017-10-25T08:06:08.617Z,16.24
2017-10-25T08:08:36.186Z,16.28
2017-10-25T08:11:03.740Z,16.25
2017-10-25T08:13:31.264Z,16.81
2017-10-25T08:15:58.791Z,16.65
2017-10-25T08:18:26.807Z,16.96
2017-10-25T08:20:54.324Z,17.14
2017-10-25T08:23:21.854Z,16.77
2017-10-25T08:25:49.693Z,17.06
2017-10-25T08:28:17.262Z,17.28
2017-10-25T08:30:44.822Z,17.24
2017-10-25T08:33:12.688Z,17.34
2017-10-25T08:35:40.283Z,17.14
2017-10-25T08:38:07.804Z,17.26
2017-10-25T08:40:35.570Z,17.38
2017-10-25T08:43:03.129Z,17.75
2017-10-25T08:45:30.690Z,18.04
2017-10-25T08:47:58.335Z,17.45
2017-10-25T08:50:25.851Z,18.22
2017-10-25T08:52:53.379Z,17.93
2017-10-25T08:55:21.130Z,17.62
2017-10-25T08:57:48.690Z,17.51
2017-10-25T09:00:16.211Z,18.10
2017-10-25T09:02:43.753Z,18.10
2017-10-25T09:05:11.263Z,18.26
2017-10-25T09:07:38.775Z,18.83
2017-10-25T09:10:06.355Z,19.22
2017-10-25T09:12:33.872Z,19.07
2017-10-25T09:15:01.421Z,18.99
2017-10-25T09:17:29.162Z,19.65
2017-10-25T09:19:56.729Z,19.66
2017-10-25T09:22:24.279Z,20.01
2017-10-25T09:24:51.828Z,21.46
2017-10-25T09:27:19.350Z,23.13
2017-10-25T09:29:46.893Z,21.70
2017-10-25T09:32:14.619Z,22.00
2017-10-25T09:34:42.178Z,22.97
2017-10-25T09:37:09.690Z,23.89
2017-10-25T09:39:37.383Z,24.68
2017-10-25T09:42:04.971Z,25.58
2017-10-25T09:44:32.493Z,26.85
2017-10-25T09:47:00.280Z,26.10
2017-10-25T09:49:27.840Z,24.80
2017-10-25T09:51:55.399Z,23.29
2017-10-25T09:54:23.151Z,22.88
2017-10-25T09:56:50.664Z,22.16
2017-10-25T09:59:18.203Z,22.19
2017-10-25T10:01:46.045Z,22.49
2017-10-25T10:04:13.603Z,22.64
2017-10-25T10:06:41.122Z,23.57
2017-10-25T10:09:08.918Z,25.27
2017-10-25T10:11:36.505Z,27.30
2017-10-25T10:14:04.026Z,28.76
2017-10-25T10:16:31.912Z,29.24
2017-10-25T10:18:59.478Z,30.61
2017-10-25T10:21:27.033Z,31.06
2017-10-25T10:23:54.658Z,31.26
2017-10-25T10:26:22.198Z,32.35
2017-10-25T10:28:49.810Z,32.89
2017-10-25T10:31:17.380Z,34.22
2017-10-25T10:33:44.899Z,35.49
2017-10-25T10:36:12.431Z,37.08
2017-10-25T10:38:40.255Z,36.57
2017-10-25T10:41:07.810Z,36.33
2017-10-25T10:43:35.370Z,35.37
2017-10-25T10:46:03.131Z,37.87
2017-10-25T10:48:30.656Z,38.61
2017-10-25T10:50:58.190Z,39.10
2017-10-25T10:53:25.748Z,37.55
2017-10-25T10:55:53.288Z,34.73
2017-10-25T10:58:20.811Z,35.36
2017-10-25T11:00:48.593Z,33.38
2017-10-25T11:03:16.147Z,35.23
2017-10-25T11:05:43.708Z,33.66
2017-10-25T11:08:11.471Z,32.21
2017-10-25T11:10:39.002Z,30.65
2017-10-25T11:13:06.520Z,30.40
2017-10-25T11:15:34.230Z,30.00
2017-10-25T11:18:01.747Z,32.58
2017-10-25T11:20:29.271Z,34.79
2017-10-25T11:22:57.248Z,36.70
2017-10-25T11:25:24.796Z,36.91
2017-10-25T11:27:52.354Z,37.80
2017-10-25T11:30:19.915Z,38.15
2017-10-25T11:32:47.471Z,38.36
2017-10-25T11:35:14.995Z,39.10
2017-10-25T11:37:42.588Z,38.42
2017-10-25T11:40:10.107Z,38.36
2017-10-25T11:42:37.636Z,37.58
2017-10-25T11:45:05.562Z,37.58
2017-10-25T11:47:33.134Z,38.71
2017-10-25T11:50:00.693Z,40.17
2017-10-25T11:52:28.252Z,39.74
2017-10-25T11:54:55.798Z,39.77
2017-10-25T11:57:23.346Z,37.09
2017-10-25T11:59:51.116Z,38.28
2017-10-25T12:02:18.653Z,37.39
2017-10-25T12:04:46.178Z,37.38
2017-10-25T12:07:13.895Z,36.99
2017-10-25T12:09:41.423Z,38.65
2017-10-25T12:12:08.992Z,36.53
2017-10-25T12:14:36.868Z,34.11
2017-10-25T12:17:04.458Z,31.55
2017-10-25T12:19:32.022Z,30.15
2017-10-25T12:22:00.190Z,27.87
2017-10-25T12:24:27.749Z,27.60
2017-10-25T12:26:55.264Z,27.26
2017-10-25T12:29:23.069Z,26.52
2017-10-25T12:31:50.630Z,25.54
2017-10-25T12:34:18.315Z,25.68
2017-10-25T12:36:46.151Z,26.01
2017-10-25T12:39:13.672Z,26.11
2017-10-25T12:41:41.486Z,26.04
2017-10-25T12:44:10.168Z,26.16
2017-10-25T12:46:37.730Z,25.36
2017-10-25T12:49:05.292Z,25.98
2017-10-25T12:51:32.879Z,26.03
2017-10-25T12:54:00.428Z,26.19
2017-10-25T12:56:27.951Z,26.05
2017-10-25T12:58:55.713Z,26.44
2017-10-25T13:01:23.226Z,26.52
2017-10-25T13:03:50.747Z,26.62
2017-10-25T13:06:18.331Z,26.44
2017-10-25T13:08:45.865Z,26.63
2017-10-25T13:25:12.118Z,26.13
2017-10-25T13:27:39.641Z,26.06
2017-10-25T13:30:07.690Z,26.06
2017-10-25T13:32:35.323Z,25.77
2017-10-25T13:35:02.848Z,25.56
2017-10-25T13:37:30.388Z,25.44
2017-10-25T13:39:58.131Z,25.16
2017-10-25T13:42:25.646Z,25.11
2017-10-25T13:44:53.168Z,25.21
2017-10-25T13:47:21.046Z,25.41
2017-10-25T13:49:48.607Z,25.28
2017-10-25T13:52:16.157Z,25.03
2017-10-25T13:54:43.907Z,25.00
2017-10-25T13:57:11.443Z,24.95
2017-10-25T13:59:38.978Z,24.37
2017-10-25T14:02:06.680Z,24.66
2017-10-25T14:04:34.459Z,24.48
2017-10-25T14:07:01.996Z,24.60
2017-10-25T14:09:29.699Z,24.76
2017-10-25T14:11:57.340Z,24.49
2017-10-25T14:14:24.986Z,24.74
2017-10-25T14:16:52.561Z,24.94
2017-10-25T14:19:20.123Z,24.37
2017-10-25T14:21:47.680Z,24.05
2017-10-25T14:24:15.428Z,24.33
2017-10-25T14:26:54.907Z,24.20
2017-10-25T14:29:22.495Z,24.07
2017-10-25T14:31:50.102Z,23.90
2017-10-25T14:34:17.629Z,23.87
2017-10-25T14:36:45.200Z,23.65
2017-10-25T14:39:12.720Z,23.88
2017-10-25T14:41:40.256Z,23.77
2017-10-25T14:44:07.827Z,23.69
2017-10-25T14:46:35.354Z,23.38
2017-10-25T14:49:03.118Z,23.15
2017-10-25T14:51:30.668Z,23.37
2017-10-25T14:53:58.224Z,23.35
2017-10-25T14:56:25.899Z,23.38
2017-10-25T14:58:53.642Z,23.46
2017-10-25T15:01:21.164Z,23.40
2017-10-25T15:03:48.686Z,23.10
2017-10-25T15:06:16.442Z,23.24
2017-10-25T15:08:44.027Z,22.83
2017-10-25T15:11:11.663Z,23.02
2017-10-25T15:13:39.539Z,23.13
2017-10-25T15:16:07.395Z,22.85
2017-10-25T15:18:35.161Z,23.00
2017-10-25T15:21:02.848Z,23.01
2017-10-25T15:23:30.483Z,22.93
2017-10-25T15:25:58.000Z,22.87
2017-10-25T15:28:25.605Z,22.82
2017-10-25T15:30:53.160Z,22.40
2017-10-25T15:33:20.719Z,22.59
2017-10-25T15:35:48.482Z,22.64
2017-10-25T15:38:16.143Z,22.33
2017-10-25T15:40:43.908Z,22.57
2017-10-25T15:43:11.758Z,22.53
2017-10-25T15:45:39.435Z,22.57
2017-10-25T15:48:07.754Z,22.47
2017-10-25T15:50:35.459Z,22.30
2017-10-25T15:53:03.087Z,22.14
2017-10-25T15:55:30.623Z,21.96
2017-10-25T15:57:58.653Z,21.73
2017-10-25T16:00:26.223Z,21.38
2017-10-25T16:02:53.782Z,21.24
2017-10-25T16:05:21.359Z,21.01
2017-10-25T16:07:49.005Z,20.75
2017-10-25T16:10:16.695Z,20.62
2017-10-25T16:12:44.454Z,20.28
2017-10-25T16:15:12.090Z,19.78
2017-10-25T16:17:39.753Z,19.72
2017-10-25T16:20:07.652Z,19.59
2017-10-25T16:22:35.795Z,19.55
2017-10-25T16:25:03.576Z,19.16
2017-10-25T16:27:31.343Z,19.31
2017-10-25T16:29:59.084Z,19.10
2017-10-25T16:32:26.672Z,19.02
2017-10-25T16:34:54.405Z,19.03
2017-10-25T16:37:21.967Z,18.93
2017-10-25T16:39:50.445Z,18.89
2017-10-25T16:42:18.209Z,18.89
2017-10-25T16:44:45.852Z,18.73
2017-10-25T16:47:13.469Z,18.69
2017-10-25T16:49:41.312Z,18.61
2017-10-25T16:52:08.855Z,18.48
2017-10-25T16:54:36.372Z,18.58
2017-10-25T16:57:04.221Z,18.59
2017-10-25T16:59:31.761Z,18.54
2017-10-25T17:01:59.300Z,18.54
2017-10-25T17:04:27.028Z,18.47
2017-10-25T17:06:54.713Z,18.37
2017-10-25T17:09:22.443Z,18.35
2017-10-25T17:11:50.461Z,18.32
2017-10-25T17:14:18.304Z,18.28
2017-10-25T17:16:45.939Z,18.15
2017-10-25T17:19:13.838Z,18.11
2017-10-25T17:21:41.628Z,18.19
2017-10-25T17:24:09.290Z,18.09
2017-10-25T17:26:37.142Z,18.14
2017-10-25T17:29:04.804Z,18.20
2017-10-25T17:31:32.372Z,18.12
2017-10-25T17:34:00.435Z,18.04
2017-10-25T17:36:28.300Z,18.11
2017-10-25T17:38:56.073Z,17.94
2017-10-25T17:41:23.923Z,17.93
2017-10-25T17:43:51.797Z,17.97
2017-10-25T17:46:20.495Z,17.90
2017-10-25T17:48:48.414Z,17.82
2017-10-25T17:51:16.214Z,17.82
2017-10-25T17:53:43.876Z,17.80
2017-10-25T17:56:13.242Z,17.88
2017-10-25T17:58:41.372Z,17.88
2017-10-25T18:01:09.143Z,17.85
2017-10-25T18:03:37.082Z,17.91
2017-10-25T18:06:05.065Z,17.97
2017-10-25T18:08:33.046Z,17.82
2017-10-25T18:11:01.212Z,18.05
2017-10-25T18:13:29.060Z,18.04
2017-10-25T18:15:56.846Z,17.99
2017-10-25T18:18:24.910Z,17.99
2017-10-25T18:20:52.762Z,17.94
2017-10-25T18:23:21.037Z,17.94
2017-10-25T18:25:49.109Z,17.94
2017-10-25T18:28:16.974Z,17.81
2017-10-25T18:30:44.765Z,17.82
2017-10-25T18:33:14.038Z,17.78
2017-10-25T18:35:42.290Z,17.73
2017-10-25T18:38:10.383Z,17.63
2017-10-25T18:40:38.672Z,17.32
2017-10-25T18:43:06.631Z,17.43
2017-10-25T18:45:35.232Z,17.43
2017-10-25T18:48:03.311Z,17.34
2017-10-25T18:50:31.277Z,17.24
2017-10-25T18:52:59.084Z,17.15
2017-10-25T18:55:27.020Z,17.16
2017-10-25T18:57:55.897Z,17.14
2017-10-25T19:00:23.640Z,17.04
2017-10-25T19:02:51.515Z,17.04
2017-10-25T19:05:19.293Z,16.99
2017-10-25T19:07:47.149Z,16.96
2017-10-25T19:10:15.002Z,16.97
2017-10-25T19:12:42.893Z,17.03
2017-10-25T19:15:10.735Z,17.03
2017-10-25T19:17:40.030Z,17.13
2017-10-25T19:20:08.516Z,17.29
2017-10-25T19:22:36.402Z,17.32
2017-10-25T19:25:04.760Z,17.34
2017-10-25T19:27:32.544Z,17.42
2017-10-25T19:30:00.516Z,17.48
2017-10-25T19:32:28.688Z,17.55
2017-10-25T19:34:56.446Z,17.60
2017-10-25T19:37:24.297Z,17.68
2017-10-25T19:39:52.708Z,17.74
2017-10-25T19:42:20.725Z,17.76
2017-10-25T19:44:48.599Z,17.78
2017-10-25T19:47:16.685Z,17.81
2017-10-25T19:49:44.550Z,17.84
2017-10-25T19:52:12.767Z,17.87
2017-10-25T19:54:40.693Z,17.86
2017-10-25T19:57:09.021Z,17.77
2017-10-25T19:59:37.043Z,17.86
2017-10-25T20:02:05.129Z,17.90
2017-10-25T20:04:32.994Z,17.94
2017-10-25T20:07:01.569Z,18.00
2017-10-25T20:09:29.648Z,18.04
2017-10-25T20:11:57.498Z,17.99
2017-10-25T20:14:25.281Z,18.04
2017-10-25T20:16:53.345Z,18.11
2017-10-25T20:19:21.197Z,18.19
2017-10-25T20:21:48.894Z,18.28
2017-10-25T20:24:17.034Z,18.19
2017-10-25T20:26:45.514Z,18.11
2017-10-25T20:29:13.296Z,18.22
2017-10-25T20:31:42.184Z,18.26
2017-10-25T20:34:09.941Z,18.16
2017-10-25T20:36:38.325Z,18.08
2017-10-25T20:39:06.486Z,18.22
2017-10-25T20:41:34.360Z,18.19
2017-10-25T20:44:02.837Z,18.23
2017-10-25T20:46:30.816Z,18.23
2017-10-25T20:48:58.567Z,18.23
2017-10-25T20:51:26.332Z,18.29
2017-10-25T20:53:54.411Z,18.31
2017-10-25T20:56:22.169Z,18.32
2017-10-25T20:58:50.134Z,18.36
2017-10-25T21:01:18.305Z,18.37
2017-10-25T21:03:45.870Z,18.39
2017-10-25T21:06:13.629Z,18.35
2017-10-25T21:08:41.597Z,18.33
2017-10-25T21:11:09.156Z,18.38
2017-10-25T21:13:37.024Z,18.43
2017-10-25T21:16:04.877Z,18.43
2017-10-25T21:18:32.489Z,18.38
2017-10-25T21:21:00.109Z,18.43
2017-10-25T21:23:27.773Z,18.47
2017-10-25T21:25:55.390Z,18.45
2017-10-25T21:28:23.613Z,18.45
2017-10-25T21:30:51.376Z,18.55
2017-10-25T21:33:18.933Z,18.59
2017-10-25T21:35:46.593Z,18.55
2017-10-25T21:38:15.214Z,18.54
2017-10-25T21:40:42.836Z,18.59
2017-10-25T21:43:10.372Z,18.57
2017-10-25T21:45:38.167Z,18.62
2017-10-25T21:48:05.719Z,18.57
2017-10-25T21:50:33.300Z,18.48
2017-10-25T21:53:01.246Z,18.54
2017-10-25T21:55:28.806Z,18.49
2017-10-25T21:57:56.372Z,18.52
2017-10-25T22:00:24.333Z,18.55
2017-10-25T22:02:51.892Z,18.58
2017-10-25T22:05:19.420Z,18.52
2017-10-25T22:07:49.200Z,18.53
2017-10-25T22:10:18.153Z,18.60
2017-10-25T22:12:45.714Z,18.61
2017-10-25T22:15:13.304Z,18.57
2017-10-25T22:17:40.824Z,18.60
2017-10-25T22:20:08.366Z,18.62
2017-10-25T22:22:36.155Z,18.63
2017-10-25T22:25:03.727Z,18.69
2017-10-25T22:27:31.273Z,18.70
2017-10-25T22:29:59.015Z,18.60
2017-10-25T22:32:27.518Z,18.70
2017-10-25T22:34:55.086Z,18.68
2017-10-25T22:37:22.942Z,18.68
2017-10-25T22:39:50.501Z,18.70
2017-10-25T22:42:18.029Z,18.69
2017-10-25T22:44:45.730Z,18.63
2017-10-25T22:47:13.281Z,18.45
2017-10-25T22:49:40.842Z,18.52
2017-10-25T22:52:08.603Z,18.54
2017-10-25T22:54:36.124Z,18.62
2017-10-25T22:57:03.650Z,18.66
2017-10-25T22:59:31.383Z,18.64
2017-10-25T23:01:58.943Z,18.56
2017-10-25T23:04:26.502Z,18.59
2017-10-25T23:06:54.563Z,18.68
2017-10-25T23:09:22.094Z,18.59
2017-10-25T23:11:50.550Z,18.65
2017-10-25T23:14:18.136Z,18.65
2017-10-25T23:16:45.658Z,18.61
2017-10-25T23:19:13.188Z,18.53
2017-10-25T23:21:41.263Z,18.60
2017-10-25T23:24:08.845Z,18.60
2017-10-25T23:26:36.455Z,18.55
2017-10-25T23:29:04.031Z,18.51
2017-10-25T23:31:31.603Z,18.56
2017-10-25T23:33:59.158Z,18.49
2017-10-25T23:36:26.920Z,18.26
2017-10-25T23:38:54.481Z,18.47
2017-10-25T23:41:22.006Z,18.47
2017-10-25T23:43:49.906Z,18.47
2017-10-25T23:46:17.465Z,18.45
2017-10-25T23:48:45.024Z,18.40
2017-10-25T23:51:12.787Z,18.24
2017-10-25T23:53:40.349Z,18.02
2017-10-25T23:56:07.880Z,18.06
2017-10-25T23:58:35.465Z,18.07
